createdAt,value
2018-04-02T00:00:02.281Z,36.91
2018-04-02T00:01:02.301Z,36.77
2018-04-02T00:02:02.255Z,36.92
2018-04-02T00:03:02.301Z,36.81
2018-04-02T00:04:02.251Z,36.89
2018-04-02T00:05:02.257Z,36.92
2018-04-02T00:06:02.305Z,36.79
2018-04-02T00:07:02.254Z,36.87
2018-04-02T00:08:02.255Z,36.87
2018-04-02T00:09:02.277Z,36.82
2018-04-02T00:10:02.260Z,36.82
2018-04-02T00:11:02.361Z,36.83
2018-04-02T00:12:02.249Z,36.93
2018-04-02T00:13:02.254Z,36.89
2018-04-02T00:14:02.282Z,36.88
2018-04-02T00:15:02.257Z,36.84
2018-04-02T00:16:02.294Z,36.94
2018-04-02T00:17:02.255Z,36.91
2018-04-02T00:18:02.267Z,36.92
2018-04-02T00:19:02.268Z,36.92
2018-04-02T00:20:02.252Z,36.91
2018-04-02T00:21:02.308Z,36.99
2018-04-02T00:22:02.267Z,36.89
2018-04-02T00:23:02.278Z,36.89
2018-04-02T00:24:02.366Z,36.84
2018-04-02T00:25:02.284Z,36.87
2018-04-02T00:26:02.288Z,36.88
2018-04-02T00:27:02.284Z,36.84
2018-04-02T00:28:02.245Z,36.84
2018-04-02T00:29:02.276Z,36.85
2018-04-02T00:30:02.278Z,36.88
2018-04-02T00:31:02.245Z,36.92
2018-04-02T00:32:02.296Z,36.92
2018-04-02T00:33:02.256Z,36.96
2018-04-02T00:34:02.248Z,36.88
2018-04-02T00:35:02.276Z,36.91
2018-04-02T00:36:02.258Z,36.89
2018-04-02T00:37:02.387Z,36.86
2018-04-02T00:38:02.260Z,36.92
2018-04-02T00:39:02.239Z,36.87
2018-04-02T00:40:02.264Z,36.92
2018-04-02T00:41:02.257Z,36.91
2018-04-02T00:42:02.349Z,36.84
2018-04-02T00:43:02.243Z,36.91
2018-04-02T00:44:02.244Z,36.98
2018-04-02T00:45:02.239Z,36.9
2018-04-02T00:46:02.520Z,36.92
2018-04-02T00:47:02.271Z,36.9
2018-04-02T00:48:02.267Z,36.96
2018-04-02T00:49:02.232Z,36.93
2018-04-02T00:50:02.242Z,36.92
2018-04-02T00:51:02.309Z,36.98
2018-04-02T00:52:02.239Z,36.94
2018-04-02T00:53:02.368Z,36.96
2018-04-02T00:54:02.356Z,36.93
2018-04-02T00:55:02.230Z,36.99
2018-04-02T00:56:02.244Z,36.94
2018-04-02T00:57:02.248Z,36.95
2018-04-02T00:58:02.343Z,36.93
2018-04-02T00:59:02.267Z,36.96
2018-04-02T01:00:02.259Z,36.89
2018-04-02T01:01:02.220Z,36.94
2018-04-02T01:02:02.255Z,37.02
2018-04-02T01:03:02.284Z,36.95
2018-04-02T01:04:02.236Z,36.94
2018-04-02T01:05:02.221Z,36.95
2018-04-02T01:06:02.265Z,36.96
2018-04-02T01:07:02.279Z,36.97
2018-04-02T01:08:02.491Z,36.98
2018-04-02T01:09:02.237Z,36.94
2018-04-02T01:10:02.241Z,36.98
2018-04-02T01:11:02.263Z,36.96
2018-04-02T01:12:02.258Z,36.96
2018-04-02T01:13:02.302Z,36.95
2018-04-02T01:14:02.260Z,37.04
2018-04-02T01:15:02.261Z,36.94
2018-04-02T01:16:02.224Z,36.96
2018-04-02T01:17:02.262Z,36.96
2018-04-02T01:18:02.229Z,36.86
2018-04-02T01:19:02.227Z,36.94
2018-04-02T01:20:02.258Z,36.9
2018-04-02T01:21:02.255Z,36.91
2018-04-02T01:22:02.242Z,36.95
2018-04-02T01:23:02.253Z,36.92
2018-04-02T01:24:02.401Z,36.92
2018-04-02T01:25:02.253Z,36.97
2018-04-02T01:26:02.273Z,36.97
2018-04-02T01:27:02.241Z,36.97
2018-04-02T01:28:02.226Z,36.95
2018-04-02T01:29:02.276Z,36.96
2018-04-02T01:30:02.228Z,36.94
2018-04-02T01:31:02.237Z,36.96
2018-04-02T01:32:02.255Z,36.95
2018-04-02T01:33:02.220Z,36.94
2018-04-02T01:34:02.508Z,36.99
2018-04-02T01:35:02.327Z,37.01
2018-04-02T01:36:02.250Z,36.98
2018-04-02T01:37:02.234Z,37.04
2018-04-02T01:38:02.263Z,36.96
2018-04-02T01:39:02.275Z,36.97
2018-04-02T01:40:02.216Z,36.99
2018-04-02T01:41:02.269Z,36.94
2018-04-02T01:42:02.224Z,37.02
2018-04-02T01:43:02.255Z,37
2018-04-02T01:44:02.333Z,36.98
2018-04-02T01:45:02.239Z,37
2018-04-02T01:46:02.232Z,36.99
2018-04-02T01:47:02.269Z,36.93
2018-04-02T01:48:02.232Z,36.95
2018-04-02T01:49:02.245Z,36.96
2018-04-02T01:50:02.345Z,36.97
2018-04-02T01:51:02.227Z,36.97
2018-04-02T01:52:02.218Z,36.98
2018-04-02T01:53:02.227Z,37.03
2018-04-02T01:54:02.293Z,36.93
2018-04-02T01:55:02.237Z,37
2018-04-02T01:56:02.236Z,36.95
2018-04-02T01:57:02.223Z,36.95
2018-04-02T01:58:02.220Z,36.96
2018-04-02T01:59:02.254Z,37
2018-04-02T02:00:02.232Z,36.96
2018-04-02T02:01:02.231Z,37
2018-04-02T02:02:02.248Z,36.99
2018-04-02T02:03:02.240Z,37
2018-04-02T02:04:02.261Z,37.01
2018-04-02T02:05:02.235Z,37
2018-04-02T02:06:02.250Z,37.01
2018-04-02T02:07:02.210Z,36.96
2018-04-02T02:08:02.215Z,37.02
2018-04-02T02:09:02.265Z,36.96
2018-04-02T02:10:02.243Z,36.98
2018-04-02T02:11:02.488Z,36.99
2018-04-02T02:12:02.268Z,36.95
2018-04-02T02:13:02.225Z,37
2018-04-02T02:14:02.234Z,36.93
2018-04-02T02:15:02.318Z,36.91
2018-04-02T02:16:02.231Z,36.94
2018-04-02T02:17:02.204Z,36.99
2018-04-02T02:18:02.245Z,36.99
2018-04-02T02:19:02.199Z,36.98
2018-04-02T02:20:02.247Z,36.91
2018-04-02T02:21:02.268Z,36.99
2018-04-02T02:22:02.208Z,36.95
2018-04-02T02:23:02.284Z,36.95
2018-04-02T02:24:02.233Z,36.89
2018-04-02T02:25:02.223Z,36.95
2018-04-02T02:26:02.243Z,36.96
2018-04-02T02:27:02.258Z,36.92
2018-04-02T02:28:02.220Z,36.99
2018-04-02T02:29:02.215Z,36.95
2018-04-02T02:30:02.243Z,36.94
2018-04-02T02:31:02.222Z,36.95
2018-04-02T02:32:02.241Z,36.94
2018-04-02T02:33:02.231Z,36.96
2018-04-02T02:34:02.205Z,36.95
2018-04-02T02:35:02.375Z,36.96
2018-04-02T02:36:02.404Z,36.93
2018-04-02T02:37:02.207Z,36.99
2018-04-02T02:38:02.252Z,36.99
2018-04-02T02:39:02.220Z,36.96
2018-04-02T02:40:02.178Z,36.97
2018-04-02T02:41:02.246Z,36.94
2018-04-02T02:42:02.303Z,36.92
2018-04-02T02:43:02.206Z,36.95
2018-04-02T02:44:02.238Z,36.92
2018-04-02T02:45:02.227Z,36.9
2018-04-02T02:46:02.297Z,36.97
2018-04-02T02:47:02.224Z,36.88
2018-04-02T02:48:02.201Z,36.92
2018-04-02T02:49:02.210Z,36.96
2018-04-02T02:50:02.243Z,36.94
2018-04-02T02:51:02.260Z,36.94
2018-04-02T02:52:02.199Z,37
2018-04-02T02:53:02.232Z,36.97
2018-04-02T02:54:02.311Z,36.95
2018-04-02T02:55:02.298Z,36.95
2018-04-02T02:56:02.252Z,36.89
2018-04-02T02:57:02.248Z,36.9
2018-04-02T02:58:02.201Z,36.92
2018-04-02T02:59:02.224Z,36.91
2018-04-02T03:00:02.197Z,36.91
2018-04-02T03:01:02.212Z,36.88
2018-04-02T03:02:02.262Z,36.87
2018-04-02T03:03:02.210Z,36.92
2018-04-02T03:04:02.210Z,36.9
2018-04-02T03:05:02.267Z,36.93
2018-04-02T03:06:02.196Z,36.88
2018-04-02T03:07:02.479Z,36.93
2018-04-02T03:08:02.247Z,36.89
2018-04-02T03:09:02.240Z,36.85
2018-04-02T03:10:02.206Z,36.9
2018-04-02T03:11:02.245Z,36.97
2018-04-02T03:12:02.259Z,36.93
2018-04-02T03:13:02.194Z,36.9
2018-04-02T03:14:02.217Z,36.92
2018-04-02T03:15:02.200Z,36.95
2018-04-02T03:16:02.190Z,36.9
2018-04-02T03:17:02.273Z,36.89
2018-04-02T03:18:02.218Z,36.98
2018-04-02T03:19:02.211Z,36.92
2018-04-02T03:20:02.226Z,36.88
2018-04-02T03:21:02.192Z,36.87
2018-04-02T03:22:02.210Z,36.92
2018-04-02T03:23:02.209Z,36.93
2018-04-02T03:24:02.219Z,36.83
2018-04-02T03:25:02.194Z,36.9
2018-04-02T03:26:02.224Z,36.87
2018-04-02T03:27:02.238Z,36.91
2018-04-02T03:28:02.193Z,36.91
2018-04-02T03:29:02.198Z,36.92
2018-04-02T03:30:02.190Z,36.86
2018-04-02T03:31:02.195Z,36.89
2018-04-02T03:32:02.211Z,36.89
2018-04-02T03:33:02.214Z,36.85
2018-04-02T03:34:02.222Z,36.9
2018-04-02T03:35:02.220Z,36.86
2018-04-02T03:36:02.209Z,36.83
2018-04-02T03:37:02.188Z,36.88
2018-04-02T03:38:02.222Z,36.86
2018-04-02T03:39:02.227Z,36.86
2018-04-02T03:40:02.202Z,36.9
2018-04-02T03:41:02.217Z,36.84
2018-04-02T03:42:02.209Z,36.94
2018-04-02T03:43:02.184Z,36.87
2018-04-02T03:44:02.227Z,36.91
2018-04-02T03:45:02.210Z,36.86
2018-04-02T03:46:02.197Z,36.92
2018-04-02T03:47:02.193Z,36.92
2018-04-02T03:48:02.281Z,36.87
2018-04-02T03:49:02.199Z,36.88
2018-04-02T03:50:02.218Z,36.89
2018-04-02T03:51:02.214Z,36.89
2018-04-02T03:52:02.192Z,36.84
2018-04-02T03:53:02.203Z,36.88
2018-04-02T03:54:02.210Z,36.94
2018-04-02T03:55:02.208Z,36.91
2018-04-02T03:56:02.188Z,36.9
2018-04-02T03:57:02.216Z,36.87
2018-04-02T03:58:02.174Z,36.93
2018-04-02T03:59:02.206Z,36.92
2018-04-02T04:00:02.203Z,36.9
2018-04-02T04:01:02.174Z,36.92
2018-04-02T04:02:02.495Z,36.84
2018-04-02T04:03:02.214Z,36.81
2018-04-02T04:04:02.194Z,36.84
2018-04-02T04:05:02.231Z,36.78
2018-04-02T04:06:02.181Z,36.77
2018-04-02T04:07:02.221Z,36.79
2018-04-02T04:08:02.208Z,36.79
2018-04-02T04:09:02.189Z,36.78
2018-04-02T04:10:02.170Z,36.8
2018-04-02T04:11:02.212Z,36.76
2018-04-02T04:12:02.203Z,36.73
2018-04-02T04:13:02.178Z,36.72
2018-04-02T04:14:02.182Z,36.77
2018-04-02T04:15:02.202Z,36.73
2018-04-02T04:16:02.168Z,36.69
2018-04-02T04:17:02.191Z,36.63
2018-04-02T04:18:02.276Z,36.71
2018-04-02T04:19:02.298Z,36.61
2018-04-02T04:20:02.193Z,36.62
2018-04-02T04:21:02.200Z,36.58
2018-04-02T04:22:02.188Z,36.55
2018-04-02T04:23:02.226Z,36.53
2018-04-02T04:24:02.207Z,36.57
2018-04-02T04:25:02.213Z,36.57
2018-04-02T04:26:02.200Z,36.48
2018-04-02T04:27:02.182Z,36.56
2018-04-02T04:28:02.169Z,36.48
2018-04-02T04:29:02.199Z,36.42
2018-04-02T04:30:02.225Z,36.5
2018-04-02T04:31:02.162Z,36.48
2018-04-02T04:32:02.187Z,36.43
2018-04-02T04:33:02.197Z,36.47
2018-04-02T04:34:02.191Z,36.54
2018-04-02T04:35:02.204Z,36.45
2018-04-02T04:36:02.180Z,36.48
2018-04-02T04:37:02.187Z,36.47
2018-04-02T04:38:02.203Z,36.49
2018-04-02T04:39:02.220Z,36.51
2018-04-02T04:40:02.156Z,36.52
2018-04-02T04:41:02.198Z,36.4
2018-04-02T04:42:02.198Z,36.48
2018-04-02T04:43:02.174Z,36.47
2018-04-02T04:44:02.202Z,36.45
2018-04-02T04:45:02.222Z,36.46
2018-04-02T04:46:02.166Z,36.38
2018-04-02T04:47:02.186Z,36.41
2018-04-02T04:48:02.169Z,36.42
2018-04-02T04:49:02.175Z,36.45
2018-04-02T04:50:02.378Z,36.45
2018-04-02T04:51:02.162Z,36.44
2018-04-02T04:52:02.169Z,36.55
2018-04-02T04:53:02.165Z,36.41
2018-04-02T04:54:02.164Z,36.46
2018-04-02T04:55:02.293Z,36.36
2018-04-02T04:56:02.254Z,36.42
2018-04-02T04:57:02.161Z,36.44
2018-04-02T04:58:02.168Z,36.49
2018-04-02T04:59:02.157Z,36.45
2018-04-02T05:00:02.189Z,36.44
2018-04-02T05:01:02.177Z,36.46
2018-04-02T05:02:02.166Z,36.41
2018-04-02T05:03:02.165Z,36.5
2018-04-02T05:04:02.164Z,36.45
2018-04-02T05:05:02.211Z,36.4
2018-04-02T05:06:02.162Z,36.51
2018-04-02T05:07:02.159Z,36.4
2018-04-02T05:08:02.165Z,36.43
2018-04-02T05:09:02.169Z,36.45
2018-04-02T05:10:02.176Z,36.33
2018-04-02T05:11:02.173Z,36.42
2018-04-02T05:12:02.199Z,36.39
2018-04-02T05:13:02.178Z,36.33
2018-04-02T05:14:02.194Z,36.31
2018-04-02T05:15:02.257Z,36.43
2018-04-02T05:16:02.154Z,36.33
2018-04-02T05:17:02.177Z,36.39
2018-04-02T05:18:02.196Z,36.44
2018-04-02T05:19:02.153Z,36.34
2018-04-02T05:20:02.175Z,36.36
2018-04-02T05:21:02.242Z,36.34
2018-04-02T05:22:02.170Z,36.35
2018-04-02T05:23:02.205Z,36.36
2018-04-02T05:24:02.160Z,36.35
2018-04-02T05:25:02.175Z,36.36
2018-04-02T05:26:02.176Z,36.36
2018-04-02T05:27:02.176Z,36.31
2018-04-02T05:28:02.160Z,36.32
2018-04-02T05:29:02.190Z,36.28
2018-04-02T05:30:02.223Z,36.38
2018-04-02T05:31:02.342Z,36.33
2018-04-02T05:32:02.189Z,36.32
2018-04-02T05:33:02.178Z,36.33
2018-04-02T05:34:02.159Z,36.3
2018-04-02T05:35:02.183Z,36.29
2018-04-02T05:36:02.171Z,36.3
2018-04-02T05:37:02.151Z,36.32
2018-04-02T05:38:02.196Z,36.29
2018-04-02T05:39:02.148Z,36.25
2018-04-02T05:40:02.142Z,36.26
2018-04-02T05:41:01.990Z,36.33
2018-04-02T05:42:02.162Z,36.26
2018-04-02T05:43:02.154Z,36.26
2018-04-02T05:44:02.172Z,36.23
2018-04-02T05:45:02.169Z,36.21
2018-04-02T05:46:02.147Z,36.25
2018-04-02T05:47:02.175Z,36.28
2018-04-02T05:48:02.149Z,36.25
2018-04-02T05:49:02.163Z,36.24
2018-04-02T05:50:02.167Z,36.21
2018-04-02T05:51:02.238Z,36.24
2018-04-02T05:52:02.208Z,36.24
2018-04-02T05:53:02.152Z,36.25
2018-04-02T05:54:02.182Z,36.23
2018-04-02T05:55:02.167Z,36.21
2018-04-02T05:56:02.157Z,36.23
2018-04-02T05:57:02.163Z,36.25
2018-04-02T05:58:02.148Z,36.2
2018-04-02T05:59:02.154Z,36.17
2018-04-02T06:00:02.146Z,36.19
2018-04-02T06:01:02.163Z,36.18
2018-04-02T06:02:02.166Z,36.23
2018-04-02T06:03:02.185Z,36.22
2018-04-02T06:04:02.167Z,36.15
2018-04-02T06:05:02.168Z,36.17
2018-04-02T06:06:02.156Z,36.17
2018-04-02T06:07:02.154Z,36.21
2018-04-02T06:08:02.139Z,36.11
2018-04-02T06:09:02.172Z,36.1
2018-04-02T06:10:02.148Z,36.16
2018-04-02T06:11:02.192Z,36.1
2018-04-02T06:12:02.169Z,36.17
2018-04-02T06:13:02.158Z,36.1
2018-04-02T06:14:02.142Z,36.13
2018-04-02T06:15:02.165Z,36.15
2018-04-02T06:16:02.166Z,36.07
2018-04-02T06:17:02.165Z,36.09
2018-04-02T06:18:02.139Z,36.17
2018-04-02T06:19:02.145Z,36.09
2018-04-02T06:20:02.264Z,36.13
2018-04-02T06:21:02.146Z,36.03
2018-04-02T06:22:02.181Z,36.09
2018-04-02T06:23:02.209Z,36.02
2018-04-02T06:24:02.165Z,36.05
2018-04-02T06:25:02.175Z,36.08
2018-04-02T06:26:02.160Z,36.11
2018-04-02T06:27:02.134Z,36.04
2018-04-02T06:28:02.137Z,36.02
2018-04-02T06:29:02.182Z,36.08
2018-04-02T06:30:02.157Z,36.08
2018-04-02T06:31:02.188Z,36.01
2018-04-02T06:32:02.140Z,36.09
2018-04-02T06:33:02.152Z,35.98
2018-04-02T06:34:02.413Z,36
2018-04-02T06:35:02.164Z,36.07
2018-04-02T06:36:02.167Z,36.04
2018-04-02T06:37:02.279Z,36.01
2018-04-02T06:38:02.132Z,36.01
2018-04-02T06:39:02.192Z,36.04
2018-04-02T06:40:02.176Z,36.02
2018-04-02T06:41:02.149Z,36.06
2018-04-02T06:42:02.139Z,36.03
2018-04-02T06:43:02.139Z,35.98
2018-04-02T06:44:02.161Z,35.92
2018-04-02T06:45:02.138Z,35.92
2018-04-02T06:46:02.125Z,35.97
2018-04-02T06:47:02.129Z,35.98
2018-04-02T06:48:02.131Z,36.01
2018-04-02T06:49:02.162Z,35.97
2018-04-02T06:50:02.158Z,35.92
2018-04-02T06:51:02.155Z,36
2018-04-02T06:52:02.121Z,35.45
2018-04-02T06:53:02.138Z,34.59
2018-04-02T06:54:02.239Z,34.99
2018-04-02T06:55:02.120Z,34.95
2018-04-02T06:56:02.247Z,34.64
2018-04-02T06:57:02.247Z,34.54
2018-04-02T06:58:02.141Z,34.46
2018-04-02T06:59:02.146Z,34.1
2018-04-02T07:00:02.149Z,34.24
2018-04-02T07:01:02.178Z,34.46
2018-04-02T07:02:02.152Z,34.47
2018-04-02T07:03:02.143Z,34.76
2018-04-02T07:04:02.155Z,34.96
2018-04-02T07:05:02.155Z,34.84
2018-04-02T07:06:02.151Z,34.96
2018-04-02T07:07:02.140Z,34.98
2018-04-02T07:08:02.152Z,35.01
2018-04-02T07:09:02.156Z,35.09
2018-04-02T07:10:02.157Z,35.05
2018-04-02T07:11:02.306Z,35.06
2018-04-02T07:12:02.129Z,35.08
2018-04-02T07:13:02.131Z,35.1
2018-04-02T07:14:02.158Z,35.1
2018-04-02T07:15:02.150Z,35.16
2018-04-02T07:16:02.150Z,35.18
2018-04-02T07:17:02.162Z,35.07
2018-04-02T07:18:02.134Z,35.16
2018-04-02T07:19:02.111Z,35.13
2018-04-02T07:20:02.159Z,35.01
2018-04-02T07:21:02.117Z,35.14
2018-04-02T07:22:02.134Z,35.24
2018-04-02T07:23:02.269Z,35.21
2018-04-02T07:24:02.146Z,35.27
2018-04-02T07:25:02.202Z,35.31
2018-04-02T07:26:02.153Z,35.2
2018-04-02T07:27:02.146Z,35.3
2018-04-02T07:28:02.132Z,35.16
2018-04-02T07:29:02.125Z,35.3
2018-04-02T07:30:02.137Z,35.29
2018-04-02T07:31:02.123Z,35.26
2018-04-02T07:32:02.146Z,35.29
2018-04-02T07:33:02.140Z,35.27
2018-04-02T07:34:02.128Z,35.19
2018-04-02T07:35:07.899Z,35.26
2018-04-02T07:36:02.143Z,35.26
2018-04-02T07:37:02.125Z,35.18
2018-04-02T07:38:02.111Z,35.23
2018-04-02T07:39:02.109Z,35.24
2018-04-02T07:40:02.134Z,35.22
2018-04-02T07:41:02.106Z,35.22
2018-04-02T07:42:02.124Z,35.26
2018-04-02T07:43:02.132Z,35.23
2018-04-02T07:44:02.149Z,35.22
2018-04-02T07:45:02.408Z,35.31
2018-04-02T07:46:02.131Z,35.23
2018-04-02T07:47:02.174Z,35.19
2018-04-02T07:48:02.125Z,35.27
2018-04-02T07:49:02.125Z,35.24
2018-04-02T07:50:02.156Z,35.29
2018-04-02T07:51:02.141Z,35.22
2018-04-02T07:52:02.141Z,35.23
2018-04-02T07:53:02.124Z,35.31
2018-04-02T07:54:02.129Z,35.26
2018-04-02T07:55:02.133Z,35.26
2018-04-02T07:56:02.186Z,35.24
2018-04-02T07:57:02.159Z,35.24
2018-04-02T07:58:02.110Z,35.2
2018-04-02T07:59:02.113Z,35.2
2018-04-02T08:00:02.127Z,35.24
2018-04-02T08:01:02.109Z,35.25
2018-04-02T08:02:02.159Z,35.21
2018-04-02T08:03:02.130Z,35.23
2018-04-02T08:04:02.108Z,35.25
2018-04-02T08:05:02.132Z,35.3
2018-04-02T08:06:02.124Z,35.22
2018-04-02T08:07:02.125Z,35.24
2018-04-02T08:08:02.132Z,35.32
2018-04-02T08:09:02.134Z,35.31
2018-04-02T08:10:02.113Z,35.26
2018-04-02T08:11:02.128Z,35.28
2018-04-02T08:12:02.193Z,35.28
2018-04-02T08:13:02.123Z,35.27
2018-04-02T08:14:02.134Z,35.19
2018-04-02T08:15:02.123Z,35.28
2018-04-02T08:16:02.127Z,35.24
2018-04-02T08:17:02.153Z,35.22
2018-04-02T08:18:02.211Z,35.25
2018-04-02T08:19:02.100Z,35.24
2018-04-02T08:20:02.139Z,35.29
2018-04-02T08:21:02.109Z,35.24
2018-04-02T08:22:02.177Z,35.21
2018-04-02T08:23:02.127Z,35.23
2018-04-02T08:24:02.126Z,35.2
2018-04-02T08:25:02.125Z,35.2
2018-04-02T08:26:02.127Z,35.26
2018-04-02T08:27:02.247Z,35.22
2018-04-02T08:28:02.134Z,35.23
2018-04-02T08:29:02.141Z,35.29
2018-04-02T08:30:02.114Z,35.23
2018-04-02T08:31:02.102Z,35.26
2018-04-02T08:32:02.130Z,35.29
2018-04-02T08:33:02.294Z,35.26
2018-04-02T08:34:02.101Z,35.26
2018-04-02T08:35:02.127Z,35.26
2018-04-02T08:36:02.080Z,35.21
2018-04-02T08:37:02.151Z,35.22
2018-04-02T08:38:02.147Z,35.25
2018-04-02T08:39:02.120Z,35.25
2018-04-02T08:40:02.096Z,35.24
2018-04-02T08:41:02.126Z,35.25
2018-04-02T08:42:02.122Z,35.21
2018-04-02T08:43:02.117Z,35.22
2018-04-02T08:44:02.109Z,35.27
2018-04-02T08:45:02.141Z,35.26
2018-04-02T08:46:02.112Z,35.21
2018-04-02T08:47:02.117Z,35.21
2018-04-02T08:48:02.115Z,35.22
2018-04-02T08:49:02.094Z,35.21
2018-04-02T08:50:02.129Z,35.26
2018-04-02T08:51:02.111Z,35.18
2018-04-02T08:52:02.121Z,35.22
2018-04-02T08:53:02.093Z,35.27
2018-04-02T08:54:02.121Z,35.27
2018-04-02T08:55:02.158Z,35.25
2018-04-02T08:56:02.096Z,35.25
2018-04-02T08:57:02.194Z,35.24
2018-04-02T08:58:02.281Z,35.23
2018-04-02T08:59:02.113Z,35.25
2018-04-02T09:00:02.154Z,35.21
2018-04-02T09:01:02.097Z,35.21
2018-04-02T09:02:02.093Z,35.28
2018-04-02T09:03:02.093Z,35.26
2018-04-02T09:04:02.159Z,35.22
2018-04-02T09:05:02.152Z,35.27
2018-04-02T09:06:02.119Z,35.23
2018-04-02T09:07:02.087Z,35.19
2018-04-02T09:08:02.105Z,35.24
2018-04-02T09:09:02.085Z,35.3
2018-04-02T09:10:02.114Z,35.4
2018-04-02T09:11:02.060Z,35.56
2018-04-02T09:12:02.118Z,35.89
2018-04-02T09:13:02.075Z,35.92
2018-04-02T09:14:02.094Z,36.25
2018-04-02T09:15:02.116Z,36.26
2018-04-02T09:16:02.088Z,36.31
2018-04-02T09:17:02.118Z,36.73
2018-04-02T09:18:02.090Z,36.53
2018-04-02T09:19:02.080Z,36.73
2018-04-02T09:20:02.112Z,36.76
2018-04-02T09:21:02.113Z,36.79
2018-04-02T09:22:02.079Z,36.44
2018-04-02T09:23:02.113Z,36.88
2018-04-02T09:24:02.079Z,36.9
2018-04-02T09:25:02.099Z,36.68
2018-04-02T09:26:02.113Z,36.97
2018-04-02T09:27:02.123Z,36.73
2018-04-02T09:28:02.082Z,36.94
2018-04-02T09:29:02.152Z,37
2018-04-02T09:30:02.108Z,37.08
2018-04-02T09:31:02.114Z,36.95
2018-04-02T09:32:02.087Z,36.99
2018-04-02T09:33:02.112Z,36.99
2018-04-02T09:34:02.100Z,37.02
2018-04-02T09:35:02.106Z,36.97
2018-04-02T09:36:02.154Z,36.71
2018-04-02T09:37:02.166Z,36.98
2018-04-02T09:38:02.094Z,37.17
2018-04-02T09:39:02.119Z,37.01
2018-04-02T09:40:02.077Z,37.15
2018-04-02T09:41:02.136Z,37.23
2018-04-02T09:42:02.102Z,37.1
2018-04-02T09:43:02.090Z,37.12
2018-04-02T09:44:02.101Z,37.24
2018-04-02T09:45:02.183Z,37.11
2018-04-02T09:46:02.106Z,37.16
2018-04-02T09:47:02.064Z,37.28
2018-04-02T09:48:02.104Z,37.25
2018-04-02T09:49:02.093Z,37.38
2018-04-02T09:50:02.099Z,37.34
2018-04-02T09:51:02.277Z,37.38
2018-04-02T09:52:02.099Z,37.36
2018-04-02T09:53:02.073Z,37.41
2018-04-02T09:54:02.093Z,37.2
2018-04-02T09:55:02.084Z,37.19
2018-04-02T09:56:02.131Z,37.48
2018-04-02T09:57:02.099Z,37.33
2018-04-02T09:58:02.084Z,37.36
2018-04-02T09:59:02.105Z,37.29
2018-04-02T10:00:02.240Z,36.86
2018-04-02T10:01:02.233Z,37.18
2018-04-02T10:02:04.183Z,37.13
2018-04-02T10:03:02.077Z,37.17
2018-04-02T10:04:02.084Z,37.32
2018-04-02T10:05:02.374Z,37.07
2018-04-02T10:06:02.116Z,36.79
2018-04-02T10:07:02.066Z,36.62
2018-04-02T10:08:02.084Z,36.14
2018-04-02T10:09:02.104Z,36.27
2018-04-02T10:10:02.334Z,36.27
2018-04-02T10:11:02.092Z,36.18
2018-04-02T10:12:02.128Z,36.01
2018-04-02T10:13:02.059Z,36.16
2018-04-02T10:14:02.074Z,36.08
2018-04-02T10:15:02.070Z,36.09
2018-04-02T10:16:02.094Z,35.97
2018-04-02T10:17:02.094Z,36.14
2018-04-02T10:18:02.085Z,36.5
2018-04-02T10:19:02.107Z,36.44
2018-04-02T10:20:02.105Z,36.51
2018-04-02T10:21:02.113Z,37.35
2018-04-02T10:22:02.085Z,37.03
2018-04-02T10:23:02.090Z,37.14
2018-04-02T10:24:02.260Z,37.01
2018-04-02T10:25:02.075Z,37.28
2018-04-02T10:26:02.095Z,36.42
2018-04-02T10:27:02.110Z,36.73
2018-04-02T10:28:02.094Z,36.44
2018-04-02T10:29:02.096Z,36.84
2018-04-02T10:30:02.310Z,36.88
2018-04-02T10:31:02.491Z,36.52
2018-04-02T10:32:02.072Z,37.05
2018-04-02T10:33:02.088Z,36.76
2018-04-02T10:34:02.113Z,36.79
2018-04-02T10:35:02.113Z,36.79
2018-04-02T10:36:02.096Z,36.64
2018-04-02T10:37:02.091Z,36.5
2018-04-02T10:38:08.501Z,36.93
2018-04-02T10:39:02.091Z,36.78
2018-04-02T10:40:02.108Z,36.84
2018-04-02T10:41:02.071Z,36.73
2018-04-02T10:42:02.098Z,36.56
2018-04-02T10:43:02.093Z,36.75
2018-04-02T10:44:02.083Z,36.29
2018-04-02T10:45:02.068Z,36.88
2018-04-02T10:46:02.092Z,36.52
2018-04-02T10:47:02.091Z,36.76
2018-04-02T10:48:02.121Z,36.82
2018-04-02T10:49:02.090Z,36.23
2018-04-02T10:50:02.084Z,36.46
2018-04-02T10:51:02.081Z,36.5
2018-04-02T10:51:25.484Z,38.97
2018-04-02T10:52:25.454Z,36.17
2018-04-02T11:12:10.656Z,35.18
2018-04-02T11:13:10.617Z,35.12
2018-04-02T11:14:10.603Z,35.3
2018-04-02T11:15:10.639Z,35.26
2018-04-02T11:16:10.623Z,35.31
2018-04-02T11:17:10.605Z,35.38
2018-04-02T11:18:10.615Z,35.42
2018-04-02T11:19:10.628Z,35.54
2018-04-02T11:20:10.658Z,35.44
2018-04-02T11:21:10.611Z,35.54
2018-04-02T11:22:10.638Z,35.54
2018-04-02T11:23:10.611Z,35.65
2018-04-02T11:24:10.618Z,35.59
2018-04-02T11:25:10.610Z,35.57
2018-04-02T11:26:10.623Z,35.36
2018-04-02T11:27:10.628Z,35.22
2018-04-02T11:27:42.601Z,35.31
2018-04-02T11:28:42.578Z,35.17
2018-04-02T11:29:33.950Z,35.25
2018-04-02T11:30:33.942Z,35.18
2018-04-02T11:31:33.994Z,35.1
2018-04-02T11:32:33.961Z,35.09
2018-04-02T11:33:33.964Z,35.17
2018-04-02T11:34:33.954Z,35.17
2018-04-02T11:35:33.918Z,35.08
2018-04-02T11:36:33.950Z,35.13
2018-04-02T11:37:33.956Z,35.18
2018-04-02T11:38:33.930Z,35.22
2018-04-02T11:39:33.955Z,35.24
2018-04-02T11:40:33.946Z,35.28
2018-04-02T11:41:33.926Z,35.27
2018-04-02T11:42:33.978Z,35.3
2018-04-02T11:43:33.931Z,35.27
2018-04-02T11:44:33.930Z,35.31
2018-04-02T11:45:33.949Z,35.3
2018-04-02T11:46:33.939Z,35.33
2018-04-02T11:47:33.956Z,37.05
2018-04-02T11:48:42.611Z,35.49
2018-04-02T11:49:42.623Z,35.42
2018-04-02T11:50:42.620Z,35.06
2018-04-02T11:51:42.634Z,35.11
2018-04-02T11:52:42.681Z,35.22
2018-04-02T11:53:42.637Z,35.06
2018-04-02T11:54:42.607Z,35
2018-04-02T11:55:56.505Z,35.21
2018-04-02T11:56:56.483Z,34.99
2018-04-02T11:57:56.452Z,34.95
2018-04-02T11:58:56.468Z,35.04
2018-04-02T11:59:56.456Z,34.91
2018-04-02T12:00:56.453Z,34.9
2018-04-02T12:01:56.457Z,34.84
2018-04-02T12:02:56.505Z,35.17
2018-04-02T12:03:56.577Z,34.95
2018-04-02T12:04:56.462Z,34.99
2018-04-02T12:05:56.479Z,34.91
2018-04-02T12:06:56.459Z,34.97
2018-04-02T12:07:56.500Z,35.02
2018-04-02T12:08:56.474Z,35.05
2018-04-02T12:09:56.467Z,35.08
2018-04-02T12:10:56.445Z,35.05
2018-04-02T12:11:56.469Z,35.05
2018-04-02T12:12:56.493Z,34.91
2018-04-02T12:13:56.444Z,34.88
2018-04-02T12:14:56.471Z,34.85
2018-04-02T12:15:56.502Z,41.29
2018-04-02T12:16:56.477Z,34.94
2018-04-02T12:17:56.450Z,34.8
2018-04-02T12:18:56.316Z,34.6
2018-04-02T12:19:56.498Z,34.49
2018-04-02T12:20:56.646Z,34.5
2018-04-02T12:21:56.454Z,34.52
2018-04-02T12:22:56.519Z,34.45
2018-04-02T12:23:56.477Z,34.58
2018-04-02T12:24:56.739Z,34.58
2018-04-02T12:25:56.533Z,34.56
2018-04-02T12:26:56.479Z,34.56
2018-04-02T12:27:56.468Z,34.47
2018-04-02T12:28:56.455Z,34.46
2018-04-02T12:29:56.529Z,34.52
2018-04-02T12:30:56.534Z,34.48
2018-04-02T12:31:56.458Z,34.47
2018-04-02T12:32:56.484Z,34.53
2018-04-02T12:33:56.478Z,34.54
2018-04-02T12:34:56.476Z,34.41
2018-04-02T12:35:56.499Z,34.48
2018-04-02T12:36:56.657Z,34.58
2018-04-02T12:37:56.455Z,34.61
2018-04-02T12:38:56.451Z,34.6
2018-04-02T12:39:56.462Z,34.59
2018-04-02T12:40:56.439Z,34.66
2018-04-02T12:41:56.503Z,34.78
2018-04-02T12:42:56.696Z,34.74
2018-04-02T12:43:56.721Z,34.8
2018-04-02T12:44:56.451Z,34.89
2018-04-02T12:45:56.478Z,34.88
2018-04-02T12:46:56.755Z,34.86
2018-04-02T12:47:56.486Z,34.9
2018-04-02T12:48:56.443Z,34.97
2018-04-02T12:49:56.450Z,34.96
2018-04-02T12:50:56.446Z,35.01
2018-04-02T12:51:56.477Z,34.91
2018-04-02T12:52:56.444Z,34.97
2018-04-02T12:53:56.454Z,35.01
2018-04-02T12:54:56.478Z,34.98
2018-04-02T12:55:56.462Z,35.03
2018-04-02T12:56:56.776Z,35.04
2018-04-02T12:57:56.467Z,35.04
2018-04-02T12:58:56.547Z,35.03
2018-04-02T12:59:56.485Z,35.05
2018-04-02T13:00:56.534Z,35.07
2018-04-02T13:01:56.492Z,34.98
2018-04-02T13:02:56.467Z,34.93
2018-04-02T13:03:56.457Z,34.91
2018-04-02T13:04:56.464Z,34.98
2018-04-02T13:05:56.454Z,34.92
2018-04-02T13:06:56.479Z,34.9
2018-04-02T13:07:56.448Z,35.07
2018-04-02T13:08:56.458Z,35
2018-04-02T13:09:56.453Z,34.99
2018-04-02T13:10:56.440Z,35.01
2018-04-02T13:11:56.453Z,35
2018-04-02T13:12:56.450Z,35.03